Blacksburg, VA (24063)

8:30 PM EST on February 11, 2016 (GMT -0500)
APRSWXNET | | Change Station
CLOSE
Current Station
Personal Weather Station
Location: Blacksburg, VA
Elevation: 2086 ft
Nearby Weather Stations

Elev 2086 ft 37.24 °N, 80.42 °W | Updated 24 minutes ago

Clear
Clear
22 °F
Feels Like 22 °F
N
0
Wind Variable Wind from NW
Gusts 0.0 mph

Today
High -- | Low -- °F
--% Chance of Precip.
Yesterday
High -- | Low -- °F
Precip. -- in
Pressure 30.21 in
Visibility 10.0 miles
Clouds Clear
Windchill 22 °F
Dew Point 6 °F
Humidity 50%
Rainfall in
Snow Depth Not available.
7:15 AM 5:56 PM
Waxing Crescent, 16% visible
METAR KBCB 120115Z AUTO 00000KT 10SM CLR M05/M14 A3021 RMK AO2 T10521142
Pressure 30.21 in
Visibility 10.0 miles
Clouds Clear
Windchill 22 °F
Dew Point 6 °F
Humidity 50%
Rainfall in
Snow Depth Not available.
7:15 AM 5:56 PM
Waxing Crescent, 16% visible
METAR KBCB 120115Z AUTO 00000KT 10SM CLR M05/M14 A3021 RMK AO2 T10521142

10-Day Weather Forecast

Almanac

Astronomy

Feb. 11, 2016 Rise Set
Actual Time
Civil Twilight
Nautical Twilight
Astronomical Twilight
Moon
Length of Visible Light
Length of Day
Tomorrow will be .
, % of the Moon is Illuminated

Today's Extremes

State Highs State Lows

Community

WunderPhotos

Upload Photos

1,892,205 photos uploaded!

WunderBlog® & News

Nearby

Air Quality

  Air Quality AQ Index Pollutant
Not available.

Snow Depth

Station Depth Elevation

Earthquake Activity

City Distance Mag. Time & Date
Minimum magnitude displayed is 2.5.

Coastal Water Temperatures

Place Temperature

Stations

Nearby Weather Stations

Station Location Temp. Windchill Dew Point Humidity Wind Precip. Elev Updated Type
                   

Watches & Warnings

There are currently no watches in effect.